Time;durP1;ratioP1;P1;durP2;ratioP2;P2;SDS_P1;SDS_P2;PMS_P1;PMS_P2;Temp;Humidity;BMP_temperature;BMP_pressure;BME280_temperature;BME280_humidity;BME280_pressure;Samples;Min_cycle;Max_cycle;Signal;HPM_P1;HPM_P2
2022/07/20 00:00:22;;;;;;;11.50;5.45;;;;;;;23.62;47.46;101182.78;4964899;28;20448;-70
2022/07/20 00:02:47;;;;;;;9.40;4.65;;;;;;;23.45;49.20;101181.13;4969310;28;20432;-70
2022/07/20 00:05:12;;;;;;;10.30;5.38;;;;;;;23.56;49.62;101182.63;4969247;28;20038;-69
2022/07/20 00:07:38;;;;;;;9.10;4.93;;;;;;;23.35;49.64;101183.19;4970506;28;20042;-68
2022/07/20 00:12:47;;;;;;;7.82;5.28;;;;;;;23.05;48.81;101180.16;4971098;28;20054;-70
2022/07/20 00:15:13;;;;;;;11.95;5.13;;;;;;;23.01;52.93;101186.94;4973267;28;20089;-68
2022/07/20 00:17:38;;;;;;;9.40;4.45;;;;;;;23.11;48.91;101184.06;4978998;28;20451;-69
2022/07/20 00:20:04;;;;;;;7.88;5.50;;;;;;;23.10;51.88;101188.66;4977688;28;20030;-68
2022/07/20 00:22:30;;;;;;;9.43;4.80;;;;;;;23.15;48.47;101191.69;4978139;28;20473;-67
2022/07/20 00:24:55;;;;;;;9.70;5.25;;;;;;;23.28;48.83;101193.88;4973827;28;20038;-69
2022/07/20 00:27:20;;;;;;;13.32;4.43;;;;;;;23.18;49.60;101185.06;4958126;28;20150;-69
2022/07/20 00:29:46;;;;;;;9.82;4.90;;;;;;;22.97;48.95;101194.59;4957615;28;20065;-68
2022/07/20 00:32:11;;;;;;;9.15;4.88;;;;;;;23.03;50.16;101189.47;4968911;28;20279;-69
2022/07/20 00:34:37;;;;;;;9.40;5.35;;;;;;;22.91;52.70;101192.53;4975857;28;20046;-71
2022/07/20 00:37:02;;;;;;;16.95;5.38;;;;;;;22.72;50.93;101192.81;4967405;28;20039;-69
2022/07/20 00:39:28;;;;;;;7.47;4.80;;;;;;;22.60;52.84;101186.88;4960457;28;20047;-69
2022/07/20 00:41:53;;;;;;;11.52;5.32;;;;;;;22.66;52.96;101188.06;4962570;28;20811;-67
2022/07/20 00:44:19;;;;;;;10.43;4.55;;;;;;;22.48;52.62;101178.16;4962798;28;20077;-69
2022/07/20 00:46:46;;;;;;;8.70;4.60;;;;;;;22.52;51.33;101175.13;4961465;28;20038;-68
2022/07/20 00:49:14;;;;;;;9.65;5.07;;;;;;;22.41;51.74;101179.00;4960632;28;20299;-70
2022/07/20 00:51:41;;;;;;;9.32;5.00;;;;;;;22.35;54.45;101171.53;4958750;28;20041;-68
2022/07/20 00:54:08;;;;;;;14.30;4.63;;;;;;;22.51;51.99;101173.44;4957299;28;20298;-70
2022/07/20 00:56:35;;;;;;;12.80;5.03;;;;;;;22.45;52.38;101161.38;4959884;28;20316;-68
2022/07/20 00:59:05;;;;;;;9.75;4.97;;;;;;;22.37;54.46;101172.19;4958435;28;20038;-71
2022/07/20 01:01:32;;;;;;;13.27;5.03;;;;;;;22.34;56.44;101167.09;4971566;28;20124;-69
2022/07/20 01:03:58;;;;;;;9.68;4.95;;;;;;;22.24;54.97;101164.53;4973330;28;20073;-69
2022/07/20 01:06:24;;;;;;;10.38;5.13;;;;;;;22.10;54.77;101166.00;4972944;28;20042;-68
2022/07/20 01:08:51;;;;;;;15.88;5.20;;;;;;;22.07;56.35;101166.31;4973052;28;20046;-67
2022/07/20 01:11:17;;;;;;;10.88;5.72;;;;;;;22.15;52.35;101166.38;4973479;28;20844;-70
2022/07/20 01:13:43;;;;;;;10.38;5.20;;;;;;;22.16;54.08;101165.34;4973039;28;20112;-70
2022/07/20 01:16:09;;;;;;;8.57;4.93;;;;;;;22.15;56.29;101170.97;4972694;28;20269;-70
2022/07/20 01:18:34;;;;;;;12.32;4.82;;;;;;;22.15;54.63;101169.09;4971873;28;20042;-69
2022/07/20 01:21:04;;;;;;;12.00;4.68;;;;;;;22.09;52.29;101166.13;4971850;28;20126;-69
2022/07/20 01:23:30;;;;;;;11.48;4.95;;;;;;;22.00;54.32;101161.72;4972064;28;20141;-67
2022/07/20 01:25:56;;;;;;;11.07;5.10;;;;;;;21.97;53.31;101166.44;4958635;28;20042;-67
2022/07/20 01:28:22;;;;;;;9.40;4.47;;;;;;;21.86;54.71;101161.31;4950949;28;20042;-72
2022/07/20 01:30:48;;;;;;;12.82;5.47;;;;;;;21.86;55.36;101157.72;4952787;28;20046;-69
2022/07/20 01:33:13;;;;;;;8.02;4.50;;;;;;;21.64;57.52;101167.31;4970712;28;20038;-70
2022/07/20 01:35:38;;;;;;;9.38;4.95;;;;;;;21.44;56.73;101164.81;4971118;28;20235;-67
2022/07/20 01:38:04;;;;;;;7.43;4.95;;;;;;;21.40;57.87;101165.28;4969192;28;20038;-72
2022/07/20 01:40:30;;;;;;;12.27;5.13;;;;;;;21.45;57.16;101158.38;4969293;28;20776;-68
2022/07/20 01:42:55;;;;;;;10.75;5.05;;;;;;;21.49;58.87;101164.34;4968489;28;20224;-68
2022/07/20 01:45:21;;;;;;;7.30;3.95;;;;;;;21.33;59.23;101159.63;4969206;28;20069;-71
2022/07/20 01:47:46;;;;;;;10.07;5.00;;;;;;;21.28;61.99;101156.50;4967324;28;20038;-69
2022/07/20 01:50:12;;;;;;;11.05;5.25;;;;;;;21.23;61.51;101163.44;4968425;28;20159;-68
2022/07/20 01:52:37;;;;;;;9.48;4.53;;;;;;;21.19;59.91;101160.22;4967944;28;20053;-72
2022/07/20 01:55:04;;;;;;;10.15;4.90;;;;;;;21.15;61.41;101167.81;4967539;28;20329;-68
2022/07/20 01:57:30;;;;;;;10.57;5.22;;;;;;;20.98;62.89;101168.66;4966487;28;20042;-70
2022/07/20 01:59:55;;;;;;;12.40;5.18;;;;;;;20.90;63.22;101172.16;4965099;28;20050;-66
2022/07/20 02:02:21;;;;;;;11.80;5.35;;;;;;;21.04;61.10;101183.47;4966762;28;20053;-70
2022/07/20 02:04:46;;;;;;;13.55;5.65;;;;;;;20.99;61.02;101181.25;4966598;28;20038;-68
2022/07/20 02:07:11;;;;;;;10.70;4.90;;;;;;;20.77;61.68;101179.84;4966685;28;20035;-67
2022/07/20 02:09:37;;;;;;;11.10;4.75;;;;;;;20.73;62.34;101183.84;4966773;28;20038;-71
2022/07/20 02:12:03;;;;;;;6.80;5.43;;;;;;;20.58;64.05;101185.41;4965198;28;20046;-69
2022/07/20 02:14:28;;;;;;;9.10;5.50;;;;;;;20.68;64.56;101187.06;4966350;28;20046;-70
2022/07/20 02:16:55;;;;;;;14.88;6.18;;;;;;;20.52;64.64;101180.59;4965385;28;20179;-69
2022/07/20 02:19:20;;;;;;;11.98;6.35;;;;;;;20.51;63.59;101182.47;4965143;28;20038;-68
2022/07/20 02:21:46;;;;;;;14.88;6.10;;;;;;;20.44;66.65;101176.78;4963998;28;20113;-69
2022/07/20 02:24:11;;;;;;;15.98;7.25;;;;;;;20.50;65.56;101174.50;4964786;28;20567;-67
2022/07/20 02:26:36;;;;;;;12.60;6.22;;;;;;;20.26;67.95;101173.19;4964447;28;20034;-71
2022/07/20 02:29:02;;;;;;;12.32;6.50;;;;;;;20.19;68.65;101169.41;4964161;28;20031;-67
2022/07/20 02:31:27;;;;;;;11.25;6.38;;;;;;;20.06;66.50;101172.44;4964188;28;20292;-68
2022/07/20 02:33:53;;;;;;;9.98;6.13;;;;;;;20.31;67.79;101170.03;4965361;28;20030;-71
2022/07/20 02:36:18;;;;;;;6.50;5.13;;;;;;;20.33;65.57;101170.72;4964611;28;20041;-68
2022/07/20 02:38:44;;;;;;;14.27;6.05;;;;;;;20.14;68.56;101167.13;4965365;28;20195;-70
2022/07/20 02:41:10;;;;;;;11.77;5.40;;;;;;;20.11;68.44;101169.28;4964030;28;20038;-68
2022/07/20 02:43:35;;;;;;;9.70;4.80;;;;;;;19.91;68.61;101171.25;4965403;28;20410;-69
2022/07/20 02:46:01;;;;;;;10.88;5.55;;;;;;;19.38;71.75;101175.41;4964413;28;20134;-68
2022/07/20 02:48:26;;;;;;;15.15;6.07;;;;;;;19.40;72.77;101177.94;4965805;28;20046;-69
2022/07/20 02:50:52;;;;;;;10.52;5.45;;;;;;;19.47;71.12;101186.31;4965722;28;20116;-68
2022/07/20 02:53:17;;;;;;;14.18;5.95;;;;;;;19.59;71.98;101179.75;4965834;28;20053;-69
2022/07/20 02:55:43;;;;;;;8.90;5.82;;;;;;;19.47;68.97;101183.63;4966026;28;20042;-72
2022/07/20 02:58:10;;;;;;;11.50;5.50;;;;;;;19.61;71.72;101178.63;4965744;28;20050;-71
2022/07/20 03:00:37;;;;;;;10.52;5.45;;;;;;;19.79;69.76;101178.72;4964994;28;20042;-67
2022/07/20 03:03:03;;;;;;;14.32;6.30;;;;;;;19.71;70.79;101175.88;4966120;28;20066;-71
2022/07/20 03:05:28;;;;;;;12.60;5.88;;;;;;;19.74;69.84;101186.44;4967452;28;20045;-73
2022/07/20 03:07:53;;;;;;;10.15;5.30;;;;;;;19.80;68.50;101190.38;4965950;28;20042;-69
2022/07/20 03:10:19;;;;;;;8.65;5.35;;;;;;;20.02;70.88;101195.41;4964832;28;20511;-69
2022/07/20 03:12:45;;;;;;;14.80;6.07;;;;;;;19.75;69.10;101195.41;4965912;28;20315;-67
2022/07/20 03:15:11;;;;;;;11.82;6.53;;;;;;;19.33;71.13;101190.38;4964141;28;20042;-69
2022/07/20 03:17:49;;;;;;;10.43;6.38;;;;;;;19.28;71.80;101187.25;4966045;28;20223;-67
2022/07/20 03:20:19;;;;;;;13.65;6.47;;;;;;;19.46;72.21;101182.75;4966106;28;20473;-69
2022/07/20 03:22:45;;;;;;;10.07;6.15;;;;;;;19.26;73.58;101181.97;4965407;28;20141;-70
2022/07/20 03:25:10;;;;;;;13.98;6.07;;;;;;;19.16;73.27;101175.72;4958484;28;20047;-70
2022/07/20 03:27:36;;;;;;;11.48;6.35;;;;;;;19.09;72.88;101175.44;4946208;28;20155;-68
2022/07/20 03:30:04;;;;;;;9.55;6.70;;;;;;;19.08;74.63;101178.31;4944945;28;20133;-68
2022/07/20 03:32:30;;;;;;;16.10;6.43;;;;;;;19.32;70.92;101181.38;4959778;28;20042;-68
2022/07/20 03:34:55;;;;;;;15.07;6.47;;;;;;;19.34;73.43;101179.38;4964594;28;20445;-66
2022/07/20 03:37:21;;;;;;;9.40;6.88;;;;;;;19.48;71.67;101177.19;4966632;28;20058;-68
2022/07/20 03:39:46;;;;;;;8.68;6.10;;;;;;;19.35;71.04;101185.66;4968734;28;20053;-67
2022/07/20 03:42:12;;;;;;;8.70;5.63;;;;;;;19.20;73.84;101197.91;4969078;28;20030;-67
2022/07/20 03:44:37;;;;;;;12.55;6.45;;;;;;;19.34;72.73;101194.78;4968839;28;20057;-71
2022/07/20 03:47:03;;;;;;;9.95;5.75;;;;;;;19.58;70.95;101197.00;4968046;28;20215;-68
2022/07/20 03:49:28;;;;;;;12.63;5.60;;;;;;;19.41;72.59;101195.88;4967940;28;20080;-69
2022/07/20 03:51:53;;;;;;;10.25;6.03;;;;;;;19.44;75.86;101192.91;4968357;28;20042;-71
2022/07/20 03:54:19;;;;;;;10.40;6.35;;;;;;;19.53;68.29;101200.13;4967741;28;20046;-69
2022/07/20 03:56:44;;;;;;;8.48;5.65;;;;;;;19.79;72.75;101211.19;4968881;28;20045;-69
2022/07/20 03:59:11;;;;;;;9.70;6.03;;;;;;;20.10;67.62;101217.19;4990447;23;20068;-68
2022/07/20 04:01:37;;;;;;;12.98;6.55;;;;;;;20.28;68.32;101221.78;5005841;23;20038;-64
2022/07/20 04:04:03;;;;;;;8.90;5.22;;;;;;;20.35;66.42;101226.47;4993520;28;20011;-64
2022/07/20 04:06:29;;;;;;;6.93;5.07;;;;;;;20.23;68.94;101227.69;4993374;28;20187;-64
2022/07/20 04:08:55;;;;;;;10.32;5.90;;;;;;;19.98;70.61;101223.81;4993082;28;20019;-64
2022/07/20 04:11:20;;;;;;;10.07;5.40;;;;;;;20.28;67.39;101224.50;4993274;28;20050;-63
2022/07/20 04:13:46;;;;;;;10.48;5.00;;;;;;;20.58;62.02;101232.34;4992540;28;20119;-64
2022/07/20 04:16:11;;;;;;;11.90;4.95;;;;;;;20.30;65.78;101231.47;4992019;28;20050;-64
2022/07/20 04:18:37;;;;;;;9.57;5.78;;;;;;;20.65;64.34;101232.59;4992070;28;20057;-64
2022/07/20 04:21:02;;;;;;;12.38;6.30;;;;;;;20.75;62.36;101238.78;4992087;28;20031;-63
2022/07/20 04:23:28;;;;;;;12.60;6.40;;;;;;;20.70;62.75;101238.41;4991890;28;20049;-63
2022/07/20 04:25:53;;;;;;;10.82;6.00;;;;;;;20.94;62.32;101244.06;4992075;28;20050;-63
2022/07/20 04:28:19;;;;;;;10.32;5.65;;;;;;;21.11;61.13;101250.47;4990857;28;20031;-63
2022/07/20 04:30:44;;;;;;;18.52;5.20;;;;;;;21.21;60.56;101255.81;4991481;28;20114;-63
2022/07/20 04:33:10;;;;;;;9.88;5.50;;;;;;;21.25;59.34;101250.94;4990782;28;20038;-63
2022/07/20 04:35:36;;;;;;;9.68;5.95;;;;;;;21.27;60.16;101257.91;4991713;28;20035;-64
2022/07/20 04:38:02;;;;;;;8.23;5.47;;;;;;;21.34;60.15;101261.75;4991081;28;20058;-64
2022/07/20 04:40:28;;;;;;;10.55;5.47;;;;;;;21.46;59.98;101265.06;4991028;28;20370;-64
2022/07/20 04:42:53;;;;;;;11.63;5.95;;;;;;;21.44;60.05;101262.50;4990102;28;20033;-65
2022/07/20 04:45:20;;;;;;;9.77;4.95;;;;;;;21.71;58.84;101266.94;4990226;28;20045;-65
2022/07/20 04:47:46;;;;;;;9.13;5.70;;;;;;;21.88;58.17;101270.59;4989544;28;20122;-65
2022/07/20 04:50:12;;;;;;;11.45;6.22;;;;;;;21.87;59.73;101284.34;4990494;28;20055;-64
2022/07/20 04:52:37;;;;;;;15.52;7.40;;;;;;;22.07;58.61;101293.13;4990224;28;20043;-65
2022/07/20 04:55:03;;;;;;;13.73;7.60;;;;;;;22.16;60.67;101303.06;4990222;28;20034;-65
2022/07/20 04:57:29;;;;;;;24.30;11.52;;;;;;;23.29;60.37;101307.16;4990361;28;20030;-64
2022/07/20 04:59:54;;;;;;;26.55;13.52;;;;;;;23.66;61.97;101305.88;4992745;28;20027;-66
2022/07/20 05:02:20;;;;;;;27.63;15.50;;;;;;;23.87;61.83;101300.72;5010006;28;20039;-64
2022/07/20 05:04:46;;;;;;;29.00;14.68;;;;;;;23.50;64.91;101310.25;5002383;28;20097;-64
2022/07/20 05:07:13;;;;;;;34.20;17.67;;;;;;;23.31;67.02;101320.63;5006271;28;20034;-64
2022/07/20 05:09:39;;;;;;;31.13;18.45;;;;;;;23.73;66.84;101315.88;5009292;28;20033;-65
2022/07/20 05:12:05;;;;;;;31.52;18.25;;;;;;;23.98;66.03;101319.41;5009655;28;20120;-64
2022/07/20 05:14:30;;;;;;;30.10;17.52;;;;;;;24.12;64.95;101325.19;4991299;28;20094;-65
2022/07/20 05:16:56;;;;;;;29.58;17.48;;;;;;;24.15;64.99;101327.59;4990078;28;20039;-65
2022/07/20 05:19:21;;;;;;;32.17;19.73;;;;;;;24.46;63.95;101324.97;4972302;28;20030;-66
2022/07/20 05:21:47;;;;;;;36.60;19.48;;;;;;;24.83;63.54;101327.00;4989205;28;20038;-65
2022/07/20 05:24:12;;;;;;;35.95;22.05;;;;;;;24.60;65.77;101326.06;4990908;28;20035;-64
2022/07/20 05:26:38;;;;;;;42.33;25.42;;;;;;;24.56;67.23;101319.31;5005822;28;20034;-65
2022/07/20 05:29:03;;;;;;;42.80;25.63;;;;;;;24.74;67.97;101331.63;5010133;28;20034;-64
2022/07/20 05:31:29;;;;;;;46.08;28.38;;;;;;;24.88;67.39;101331.91;5010680;28;20191;-66
2022/07/20 05:33:54;;;;;;;54.05;29.00;;;;;;;24.63;69.17;101337.50;4998164;28;20037;-66
2022/07/20 05:36:20;;;;;;;44.20;29.42;;;;;;;24.52;70.16;101337.88;4991029;28;20046;-66
2022/07/20 05:38:45;;;;;;;59.25;29.42;;;;;;;24.86;69.90;101334.00;4990231;28;20023;-66
2022/07/20 05:41:11;;;;;;;50.53;30.83;;;;;;;25.23;68.83;101333.28;4991306;28;20110;-64
2022/07/20 05:43:36;;;;;;;55.47;32.00;;;;;;;25.61;67.82;101333.34;4990333;28;20019;-65
2022/07/20 05:46:02;;;;;;;57.35;30.90;;;;;;;25.66;67.72;101334.47;4987909;28;20057;-63
2022/07/20 05:48:29;;;;;;;53.78;31.98;;;;;;;25.42;68.09;101345.59;4989587;28;20026;-63
2022/07/20 05:50:55;;;;;;;54.92;32.38;;;;;;;26.17;67.08;101352.97;4988565;28;20022;-63
2022/07/20 05:53:20;;;;;;;52.28;31.38;;;;;;;26.38;65.69;101344.88;4989089;28;20066;-63
2022/07/20 05:55:46;;;;;;;55.33;33.42;;;;;;;26.61;65.06;101342.09;4989064;28;20031;-63
2022/07/20 05:58:12;;;;;;;56.45;33.38;;;;;;;26.49;65.67;101346.31;4972526;28;20046;-62
2022/07/20 06:00:37;;;;;;;45.35;30.70;;;;;;;26.41;65.38;101338.16;4989733;28;20045;-63
2022/07/20 06:03:04;;;;;;;56.30;32.58;;;;;;;27.00;63.83;101338.97;4989026;28;20027;-62
2022/07/20 06:05:29;;;;;;;53.70;33.63;;;;;;;26.80;64.03;101354.31;4990610;28;20047;-62
2022/07/20 06:07:56;;;;;;;49.00;32.35;;;;;;;26.94;63.12;101347.13;4989449;28;20035;-62
2022/07/20 06:10:22;;;;;;;47.28;30.38;;;;;;;27.32;62.04;101345.06;4990360;28;20050;-63
2022/07/20 06:12:48;;;;;;;55.50;32.28;;;;;;;27.66;63.25;101352.53;4989931;28;20321;-62
2022/07/20 06:15:13;;;;;;;54.42;31.20;;;;;;;27.46;62.26;101354.22;4989430;28;20039;-63
2022/07/20 06:17:40;;;;;;;59.53;33.03;;;;;;;27.49;61.83;101364.81;4989423;28;20100;-62
2022/07/20 06:20:08;;;;;;;55.30;32.92;;;;;;;27.68;61.93;101360.56;4988546;28;20038;-63
2022/07/20 06:22:36;;;;;;;47.28;31.15;;;;;;;28.49;60.48;101358.28;4988538;28;20114;-63
2022/07/20 06:25:02;;;;;;;52.83;32.95;;;;;;;27.73;61.29;101380.88;4989575;28;20037;-64
2022/07/20 06:27:28;;;;;;;50.33;32.13;;;;;;;27.86;61.44;101386.50;4989100;28;20090;-63
2022/07/20 06:29:54;;;;;;;48.08;31.25;;;;;;;27.65;62.35;101385.63;4989466;28;20054;-62
2022/07/20 06:32:19;;;;;;;47.30;30.48;;;;;;;27.58;62.02;101400.09;4988039;28;20019;-63
2022/07/20 06:34:45;;;;;;;50.17;30.27;;;;;;;27.97;59.57;101414.44;4988098;28;20037;-63
2022/07/20 06:37:10;;;;;;;46.17;29.55;;;;;;;27.92;59.45;101417.75;4988583;28;20057;-63
2022/07/20 06:39:36;;;;;;;42.70;29.90;;;;;;;28.01;60.87;101427.50;4988275;28;20088;-63
2022/07/20 06:42:01;;;;;;;44.45;28.58;;;;;;;27.85;60.84;101438.75;4988922;28;20034;-63
2022/07/20 06:44:27;;;;;;;44.47;30.88;;;;;;;27.80;60.59;101435.75;4989008;28;20277;-62
2022/07/20 06:46:52;;;;;;;54.60;31.30;;;;;;;28.05;58.94;101445.28;4988699;28;20058;-62
2022/07/20 06:49:18;;;;;;;48.72;29.40;;;;;;;28.44;57.26;101460.41;4989202;28;20066;-62
2022/07/20 06:51:43;;;;;;;50.25;29.58;;;;;;;28.55;57.02;101454.34;4988138;28;20038;-65
2022/07/20 06:54:09;;;;;;;44.53;29.45;;;;;;;28.61;56.83;101453.53;4988280;28;20035;-63
2022/07/20 06:56:34;;;;;;;46.55;28.95;;;;;;;28.76;57.46;101455.31;4989218;28;20428;-63
2022/07/20 06:59:00;;;;;;;40.92;29.50;;;;;;;28.70;58.54;101480.84;4988829;28;20029;-63
2022/07/20 07:01:25;;;;;;;47.85;28.48;;;;;;;28.93;56.24;101489.66;5003608;28;20073;-62
2022/07/20 07:03:50;;;;;;;45.67;30.17;;;;;;;29.13;54.02;101487.06;5008666;28;20157;-63
2022/07/20 07:06:16;;;;;;;41.15;28.75;;;;;;;28.41;55.20;101487.38;5008790;28;20034;-63
2022/07/20 07:08:42;;;;;;;47.83;27.60;;;;;;;28.93;53.86;101502.56;5007629;28;20129;-63
2022/07/20 07:11:08;;;;;;;41.47;28.05;;;;;;;28.89;54.03;101508.44;5007899;28;20189;-63
2022/07/20 07:13:33;;;;;;;46.10;27.48;;;;;;;29.14;53.14;101499.72;5008668;28;20152;-62
2022/07/20 07:15:59;;;;;;;49.63;27.08;;;;;;;28.93;54.19;101505.28;5007460;28;20044;-63
2022/07/20 07:18:24;;;;;;;40.85;27.98;;;;;;;29.21;53.46;101517.09;5007693;28;20034;-62
2022/07/20 07:20:50;;;;;;;48.05;27.30;;;;;;;29.60;51.94;101521.94;5008455;28;20033;-63
2022/07/20 07:23:15;;;;;;;40.40;24.88;;;;;;;29.65;50.99;101522.16;5008363;28;20026;-63
2022/07/20 07:25:41;;;;;;;39.25;24.08;;;;;;;30.27;49.84;101522.94;5005740;28;20026;-63
2022/07/20 07:28:06;;;;;;;40.50;23.67;;;;;;;29.37;51.43;101532.41;5008164;28;20038;-65
2022/07/20 07:30:33;;;;;;;40.38;24.15;;;;;;;28.71;52.70;101543.78;5006452;28;20022;-64
2022/07/20 07:32:58;;;;;;;43.38;24.65;;;;;;;28.71;52.92;101554.75;4988281;28;20038;-63
2022/07/20 07:35:24;;;;;;;34.65;22.48;;;;;;;29.37;51.71;101549.75;4987206;28;20065;-63
2022/07/20 07:37:49;;;;;;;38.30;21.45;;;;;;;29.04;51.43;101546.78;4987842;28;20043;-62
2022/07/20 07:40:15;;;;;;;30.63;20.55;;;;;;;29.21;50.10;101538.22;4988355;28;20035;-62
2022/07/20 07:42:40;;;;;;;27.88;20.45;;;;;;;28.66;52.38;101549.00;4987890;28;20061;-62
2022/07/20 07:45:07;;;;;;;36.72;21.25;;;;;;;28.76;53.97;101551.41;4988771;28;20050;-63
2022/07/20 07:47:34;;;;;;;43.22;21.40;;;;;;;28.70;52.58;101549.47;4986663;28;20023;-62
2022/07/20 07:50:00;;;;;;;31.73;19.73;;;;;;;29.20;53.01;101573.09;4988196;28;20039;-63
2022/07/20 07:52:25;;;;;;;32.80;20.20;;;;;;;29.09;51.48;101579.16;4987382;28;20037;-64
2022/07/20 07:54:51;;;;;;;30.38;19.85;;;;;;;29.24;51.50;101584.53;4988387;28;20047;-64
2022/07/20 07:57:16;;;;;;;28.45;18.13;;;;;;;30.04;51.39;101574.75;4970893;28;20035;-62
2022/07/20 07:59:42;;;;;;;30.83;18.65;;;;;;;29.34;50.56;101580.38;4988484;28;20027;-62
2022/07/20 08:02:08;;;;;;;36.67;19.75;;;;;;;29.42;50.04;101584.88;4988199;28;20054;-64
2022/07/20 08:04:34;;;;;;;31.05;18.23;;;;;;;29.58;50.37;101581.78;4988402;28;20042;-62
2022/07/20 08:06:59;;;;;;;34.80;18.63;;;;;;;30.35;47.96;101583.31;4988599;28;20038;-62
2022/07/20 08:09:25;;;;;;;33.10;17.90;;;;;;;29.28;50.18;101586.69;4971687;28;20046;-62
2022/07/20 08:11:51;;;;;;;34.38;18.48;;;;;;;29.75;48.90;101590.53;4989094;28;20034;-62
2022/07/20 08:14:17;;;;;;;37.10;18.05;;;;;;;29.96;49.37;101589.53;4971317;28;20029;-64
2022/07/20 08:16:43;;;;;;;27.38;17.52;;;;;;;30.11;46.82;101589.38;4988590;28;20045;-62
2022/07/20 08:19:10;;;;;;;25.48;18.08;;;;;;;29.23;49.06;101602.06;4988517;28;20031;-63
2022/07/20 08:21:35;;;;;;;31.73;18.70;;;;;;;28.42;51.30;101613.44;4989985;28;20031;-64
2022/07/20 08:24:05;;;;;;;29.20;18.35;;;;;;;27.89;52.50;101612.81;4991212;28;20033;-62
2022/07/20 08:26:31;;;;;;;32.28;17.90;;;;;;;27.82;52.88;101622.84;5008959;28;20041;-64
2022/07/20 08:28:57;;;;;;;28.65;16.08;;;;;;;27.82;53.86;101626.44;5011718;28;20266;-64
2022/07/20 08:31:22;;;;;;;25.65;16.65;;;;;;;27.93;54.75;101624.25;5005684;28;20034;-63
2022/07/20 08:33:48;;;;;;;26.67;16.23;;;;;;;27.81;51.30;101619.25;4992021;28;20058;-64
2022/07/20 08:36:13;;;;;;;24.13;16.20;;;;;;;28.16;51.39;101608.47;4990982;28;20428;-64
2022/07/20 08:38:39;;;;;;;30.15;15.70;;;;;;;28.54;52.76;101595.38;4991853;28;20046;-63
2022/07/20 08:41:08;;;;;;;22.27;14.55;;;;;;;28.98;49.68;101604.44;4991690;28;20034;-63
2022/07/20 08:43:33;;;;;;;29.23;15.50;;;;;;;28.66;50.53;101598.44;4991621;28;20033;-63
2022/07/20 08:45:59;;;;;;;21.52;13.52;;;;;;;29.25;48.90;101616.44;4991598;28;20114;-63
2022/07/20 08:48:26;;;;;;;28.52;16.27;;;;;;;29.63;47.69;101620.50;4991474;28;20043;-64
2022/07/20 08:50:52;;;;;;;22.88;13.95;;;;;;;29.84;47.07;101616.78;4990660;28;20031;-64
2022/07/20 08:53:19;;;;;;;26.42;14.13;;;;;;;30.14;46.29;101608.25;4990117;28;20038;-64
2022/07/20 08:55:45;;;;;;;26.27;14.75;;;;;;;29.72;48.11;101620.31;4991212;28;20043;-65
2022/07/20 08:58:11;;;;;;;24.85;12.85;;;;;;;29.85;50.46;101614.88;4991021;28;20094;-64
2022/07/20 09:00:37;;;;;;;23.13;13.65;;;;;;;30.47;47.92;101610.19;4998889;28;20042;-62
2022/07/20 09:03:04;;;;;;;21.77;13.13;;;;;;;30.42;47.82;101614.47;5009509;28;20049;-63
2022/07/20 09:05:32;;;;;;;25.30;14.65;;;;;;;30.46;46.58;101606.59;5009454;28;20042;-62
2022/07/20 09:07:59;;;;;;;26.65;14.35;;;;;;;30.29;46.78;101600.66;5010374;28;20038;-63
2022/07/20 09:10:34;;;;;;;19.40;14.25;;;;;;;30.03;47.85;101603.31;5009596;28;20042;-63
2022/07/20 09:13:06;;;;;;;27.15;15.20;;;;;;;29.69;48.48;101618.00;5010731;28;20032;-63
2022/07/20 09:15:34;;;;;;;25.08;14.23;;;;;;;29.29;48.01;101615.84;5010693;28;20097;-63
2022/07/20 09:18:08;;;;;;;27.77;14.93;;;;;;;29.64;47.54;101602.97;5010386;28;20069;-62
2022/07/20 09:20:36;;;;;;;27.10;13.80;;;;;;;30.21;48.58;101598.09;5010528;28;20038;-63
2022/07/20 09:23:08;;;;;;;26.25;12.98;;;;;;;29.78;46.36;101620.38;5009390;28;20022;-62
2022/07/20 09:25:33;;;;;;;21.42;13.10;;;;;;;30.37;46.64;101608.72;5000840;28;20035;-63
2022/07/20 09:28:00;;;;;;;19.65;12.45;;;;;;;30.51;46.51;101611.47;4990812;28;20041;-63
2022/07/20 09:30:26;;;;;;;21.48;11.85;;;;;;;30.42;46.94;101616.34;4991125;28;20042;-63
2022/07/20 09:32:52;;;;;;;19.50;12.38;;;;;;;30.32;44.59;101602.97;4989927;28;20050;-63
2022/07/20 09:35:19;;;;;;;16.40;11.05;;;;;;;30.28;45.78;101601.72;4990874;28;20035;-63
2022/07/20 09:37:45;;;;;;;23.73;11.80;;;;;;;29.86;47.48;101595.44;4990633;28;20034;-63
2022/07/20 09:40:11;;;;;;;22.02;10.73;;;;;;;29.90;46.40;101579.38;4991066;28;20065;-63
2022/07/20 09:42:41;;;;;;;18.10;10.07;;;;;;;30.54;43.63;101578.03;4990945;28;20035;-64
2022/07/20 09:45:21;;;;;;;17.60;10.70;;;;;;;30.81;44.44;101582.50;4990963;28;20027;-63
2022/07/20 09:48:09;;;;;;;20.05;11.02;;;;;;;30.06;48.08;101594.63;4990732;28;20027;-63
2022/07/20 09:50:40;;;;;;;18.75;11.15;;;;;;;30.31;46.98;101612.31;4990806;28;20038;-64
2022/07/20 09:53:07;;;;;;;22.63;11.55;;;;;;;30.66;44.74;101615.72;4989969;28;20034;-63
2022/07/20 09:55:34;;;;;;;21.20;10.75;;;;;;;31.11;46.29;101626.13;4989692;28;20106;-63
2022/07/20 09:58:00;;;;;;;16.27;9.40;;;;;;;30.65;44.75;101649.00;4990640;28;20030;-63
2022/07/20 10:00:27;;;;;;;17.50;10.02;;;;;;;30.39;45.37;101658.06;4997148;28;20324;-64
2022/07/20 10:02:55;;;;;;;14.23;9.75;;;;;;;30.58;45.31;101651.75;5010168;28;20081;-64
2022/07/20 10:05:22;;;;;;;22.00;10.40;;;;;;;30.42;44.37;101654.88;5010090;28;20018;-64
2022/07/20 10:07:49;;;;;;;19.55;9.25;;;;;;;30.17;44.39;101647.22;5010044;28;20026;-63
2022/07/20 10:10:14;;;;;;;15.50;9.18;;;;;;;30.36;43.23;101651.06;5009944;28;20050;-65
2022/07/20 10:12:40;;;;;;;15.23;8.73;;;;;;;30.21;44.89;101638.53;5008833;28;20026;-65
2022/07/20 10:15:11;;;;;;;15.10;8.85;;;;;;;29.58;45.51;101628.53;5009885;28;20037;-64
2022/07/20 10:17:38;;;;;;;15.40;9.05;;;;;;;29.68;44.83;101633.66;5008746;28;20038;-64
2022/07/20 10:20:26;;;;;;;14.57;9.10;;;;;;;30.17;46.10;101614.19;5009777;28;20268;-62
2022/07/20 10:23:14;;;;;;;16.42;9.30;;;;;;;30.66;46.28;101607.47;5009834;28;20066;-64
2022/07/20 10:25:39;;;;;;;19.45;9.52;;;;;;;30.59;44.13;101609.38;5009702;28;20026;-64
2022/07/20 10:28:28;;;;;;;12.63;8.95;;;;;;;30.54;44.28;101619.34;5009690;28;20031;-64
2022/07/20 10:30:57;;;;;;;15.48;10.15;;;;;;;30.15;46.37;101642.97;5007488;28;20038;-64
2022/07/20 10:33:24;;;;;;;14.32;8.43;;;;;;;30.70;44.43;101640.97;4989910;28;20056;-65
2022/07/20 10:35:50;;;;;;;13.07;9.23;;;;;;;31.01;43.84;101662.38;4989018;28;20031;-64
2022/07/20 10:38:20;;;;;;;13.13;8.23;;;;;;;31.15;43.93;101685.28;4989684;28;20177;-64
2022/07/20 10:44:22;;;;;;;16.52;9.30;;;;;;;31.14;46.66;101700.13;4989563;28;20118;-64
2022/07/20 10:46:49;;;;;;;17.60;10.02;;;;;;;30.80;44.23;101688.22;4989597;28;20049;-64
2022/07/20 10:49:16;;;;;;;17.20;10.35;;;;;;;31.06;44.55;101694.81;4989654;28;20053;-65
2022/07/20 10:51:42;;;;;;;18.73;10.73;;;;;;;31.36;47.26;101681.47;4989777;28;20038;-65
2022/07/20 10:54:33;;;;;;;15.88;9.25;;;;;;;31.50;44.41;101685.06;4989340;28;20035;-64
2022/07/20 10:56:59;;;;;;;13.80;9.05;;;;;;;30.92;44.85;101674.66;4989577;28;20211;-64
2022/07/20 10:59:25;;;;;;;17.92;9.30;;;;;;;31.49;43.85;101669.59;4989351;28;20035;-64
2022/07/20 11:01:50;;;;;;;17.95;9.50;;;;;;;31.42;46.24;101672.34;5007190;28;20057;-64
2022/07/20 11:04:17;;;;;;;14.48;10.20;;;;;;;30.99;43.68;101688.47;5007668;28;20026;-64
2022/07/20 11:06:42;;;;;;;14.15;9.40;;;;;;;30.81;43.76;101681.66;5007614;28;20123;-64
2022/07/20 11:09:08;;;;;;;17.70;9.55;;;;;;;31.12;44.30;101677.44;5007567;28;20038;-64
2022/07/20 11:11:36;;;;;;;14.25;9.35;;;;;;;31.47;42.90;101675.28;5007688;28;20034;-64
2022/07/20 11:14:04;;;;;;;12.63;9.18;;;;;;;31.32;43.17;101675.53;5008530;28;20026;-65
2022/07/20 11:16:32;;;;;;;11.50;7.70;;;;;;;31.11;45.30;101659.19;5008803;28;20034;-64